sensor_id;sensor_type;location;lat;lon;timestamp;temperature;humidity
10903;DHT22;5504;47.312;11.060;2022-07-06T00:01:55;16.70;96.80
10903;DHT22;5504;47.312;11.060;2022-07-06T00:04:21;16.60;96.80
10903;DHT22;5504;47.312;11.060;2022-07-06T00:06:47;16.60;96.80
10903;DHT22;5504;47.312;11.060;2022-07-06T00:09:13;16.60;97.30
10903;DHT22;5504;47.312;11.060;2022-07-06T00:11:38;16.70;97.60
10903;DHT22;5504;47.312;11.060;2022-07-06T00:14:04;16.80;97.70
10903;DHT22;5504;47.312;11.060;2022-07-06T00:16:30;16.90;97.40
10903;DHT22;5504;47.312;11.060;2022-07-06T00:18:56;17.00;97.20
10903;DHT22;5504;47.312;11.060;2022-07-06T00:21:22;17.00;97.10
10903;DHT22;5504;47.312;11.060;2022-07-06T00:23:48;17.10;97.00
10903;DHT22;5504;47.312;11.060;2022-07-06T00:26:14;17.00;96.80
10903;DHT22;5504;47.312;11.060;2022-07-06T00:28:40;16.90;96.70
10903;DHT22;5504;47.312;11.060;2022-07-06T00:31:05;16.90;97.10
10903;DHT22;5504;47.312;11.060;2022-07-06T00:33:31;16.90;97.30
10903;DHT22;5504;47.312;11.060;2022-07-06T00:35:57;17.00;97.30
10903;DHT22;5504;47.312;11.060;2022-07-06T00:38:23;16.90;97.10
10903;DHT22;5504;47.312;11.060;2022-07-06T00:40:49;16.90;97.10
10903;DHT22;5504;47.312;11.060;2022-07-06T00:43:15;17.00;97.30
10903;DHT22;5504;47.312;11.060;2022-07-06T00:45:41;16.90;97.30
10903;DHT22;5504;47.312;11.060;2022-07-06T00:48:07;16.90;97.40
10903;DHT22;5504;47.312;11.060;2022-07-06T00:50:33;17.00;97.30
10903;DHT22;5504;47.312;11.060;2022-07-06T00:53:01;17.10;97.00
10903;DHT22;5504;47.312;11.060;2022-07-06T00:55:29;17.30;96.80
10903;DHT22;5504;47.312;11.060;2022-07-06T00:57:56;17.40;96.20
10903;DHT22;5504;47.312;11.060;2022-07-06T01:00:24;17.50;95.90
10903;DHT22;5504;47.312;11.060;2022-07-06T01:02:50;17.50;96.00
10903;DHT22;5504;47.312;11.060;2022-07-06T01:05:16;17.60;95.80
10903;DHT22;5504;47.312;11.060;2022-07-06T01:07:44;17.60;95.70
10903;DHT22;5504;47.312;11.060;2022-07-06T01:10:12;17.70;96.00
10903;DHT22;5504;47.312;11.060;2022-07-06T01:12:40;17.80;95.90
10903;DHT22;5504;47.312;11.060;2022-07-06T01:15:14;17.70;95.90
10903;DHT22;5504;47.312;11.060;2022-07-06T01:17:41;17.60;95.90
10903;DHT22;5504;47.312;11.060;2022-07-06T01:20:12;17.50;96.30
10903;DHT22;5504;47.312;11.060;2022-07-06T01:22:38;17.60;96.30
10903;DHT22;5504;47.312;11.060;2022-07-06T01:25:05;17.70;96.40
10903;DHT22;5504;47.312;11.060;2022-07-06T01:27:31;17.70;96.60
10903;DHT22;5504;47.312;11.060;2022-07-06T01:29:57;17.80;96.80
10903;DHT22;5504;47.312;11.060;2022-07-06T01:32:23;17.80;96.70
10903;DHT22;5504;47.312;11.060;2022-07-06T01:34:48;17.90;96.00
10903;DHT22;5504;47.312;11.060;2022-07-06T01:37:14;18.00;95.80
10903;DHT22;5504;47.312;11.060;2022-07-06T01:39:40;17.90;96.30
10903;DHT22;5504;47.312;11.060;2022-07-06T01:42:06;17.80;96.50
10903;DHT22;5504;47.312;11.060;2022-07-06T01:44:31;18.00;95.80
10903;DHT22;5504;47.312;11.060;2022-07-06T01:46:57;18.10;95.40
10903;DHT22;5504;47.312;11.060;2022-07-06T01:49:23;18.00;95.10
10903;DHT22;5504;47.312;11.060;2022-07-06T01:51:49;17.80;95.20
10903;DHT22;5504;47.312;11.060;2022-07-06T01:54:14;17.60;96.10
10903;DHT22;5504;47.312;11.060;2022-07-06T01:56:40;17.30;96.30
10903;DHT22;5504;47.312;11.060;2022-07-06T01:59:06;17.30;96.70
10903;DHT22;5504;47.312;11.060;2022-07-06T02:01:31;17.30;96.90
10903;DHT22;5504;47.312;11.060;2022-07-06T02:03:57;17.30;96.80
10903;DHT22;5504;47.312;11.060;2022-07-06T02:06:23;17.30;96.80
10903;DHT22;5504;47.312;11.060;2022-07-06T02:08:48;17.20;96.60
10903;DHT22;5504;47.312;11.060;2022-07-06T02:11:16;17.20;96.80
10903;DHT22;5504;47.312;11.060;2022-07-06T02:13:42;17.20;96.80
10903;DHT22;5504;47.312;11.060;2022-07-06T02:16:08;17.10;96.80
10903;DHT22;5504;47.312;11.060;2022-07-06T02:18:34;17.00;96.70
10903;DHT22;5504;47.312;11.060;2022-07-06T02:21:00;17.00;96.70
10903;DHT22;5504;47.312;11.060;2022-07-06T02:23:25;16.90;96.70
10903;DHT22;5504;47.312;11.060;2022-07-06T02:25:51;16.90;96.70
10903;DHT22;5504;47.312;11.060;2022-07-06T02:28:17;16.70;96.60
10903;DHT22;5504;47.312;11.060;2022-07-06T02:30:43;16.60;96.50
10903;DHT22;5504;47.312;11.060;2022-07-06T02:33:08;16.60;96.80
10903;DHT22;5504;47.312;11.060;2022-07-06T02:35:34;16.60;97.10
10903;DHT22;5504;47.312;11.060;2022-07-06T02:38:00;16.60;97.20
10903;DHT22;5504;47.312;11.060;2022-07-06T02:40:25;16.60;97.10
10903;DHT22;5504;47.312;11.060;2022-07-06T02:42:51;16.60;96.80
10903;DHT22;5504;47.312;11.060;2022-07-06T02:45:17;16.50;96.70
10903;DHT22;5504;47.312;11.060;2022-07-06T02:47:42;16.50;97.20
10903;DHT22;5504;47.312;11.060;2022-07-06T02:50:08;16.50;97.10
10903;DHT22;5504;47.312;11.060;2022-07-06T02:52:34;16.40;97.10
10903;DHT22;5504;47.312;11.060;2022-07-06T02:55:00;16.30;97.00
10903;DHT22;5504;47.312;11.060;2022-07-06T02:57:25;16.20;97.20
10903;DHT22;5504;47.312;11.060;2022-07-06T02:59:51;16.10;97.40
10903;DHT22;5504;47.312;11.060;2022-07-06T03:02:17;16.10;97.30
10903;DHT22;5504;47.312;11.060;2022-07-06T03:04:43;16.10;97.40
10903;DHT22;5504;47.312;11.060;2022-07-06T03:07:09;16.10;97.50
10903;DHT22;5504;47.312;11.060;2022-07-06T03:09:34;16.00;97.30
10903;DHT22;5504;47.312;11.060;2022-07-06T03:12:00;16.00;97.50
10903;DHT22;5504;47.312;11.060;2022-07-06T03:14:26;15.90;97.40
10903;DHT22;5504;47.312;11.060;2022-07-06T03:16:52;15.90;97.60
10903;DHT22;5504;47.312;11.060;2022-07-06T03:19:18;15.80;97.80
10903;DHT22;5504;47.312;11.060;2022-07-06T03:21:44;15.80;97.90
10903;DHT22;5504;47.312;11.060;2022-07-06T03:24:10;15.80;98.10
10903;DHT22;5504;47.312;11.060;2022-07-06T03:26:36;15.80;97.80
10903;DHT22;5504;47.312;11.060;2022-07-06T03:29:01;15.60;98.00
10903;DHT22;5504;47.312;11.060;2022-07-06T03:31:27;15.60;98.20
10903;DHT22;5504;47.312;11.060;2022-07-06T03:33:53;15.70;98.50
10903;DHT22;5504;47.312;11.060;2022-07-06T03:36:19;15.70;98.50
10903;DHT22;5504;47.312;11.060;2022-07-06T03:38:44;15.70;98.20
10903;DHT22;5504;47.312;11.060;2022-07-06T03:41:10;15.80;98.10
10903;DHT22;5504;47.312;11.060;2022-07-06T03:43:36;15.80;98.00
10903;DHT22;5504;47.312;11.060;2022-07-06T03:46:03;15.80;97.90
10903;DHT22;5504;47.312;11.060;2022-07-06T03:48:28;15.90;97.90
10903;DHT22;5504;47.312;11.060;2022-07-06T03:50:55;15.90;98.00
10903;DHT22;5504;47.312;11.060;2022-07-06T03:53:21;15.90;97.70
10903;DHT22;5504;47.312;11.060;2022-07-06T03:55:46;15.90;97.90
10903;DHT22;5504;47.312;11.060;2022-07-06T03:58:32;15.80;98.00
10903;DHT22;5504;47.312;11.060;2022-07-06T04:00:58;15.80;97.80
10903;DHT22;5504;47.312;11.060;2022-07-06T04:03:23;15.70;97.80
10903;DHT22;5504;47.312;11.060;2022-07-06T04:05:49;15.60;97.60
10903;DHT22;5504;47.312;11.060;2022-07-06T04:08:15;15.50;98.40
10903;DHT22;5504;47.312;11.060;2022-07-06T04:10:40;15.50;98.50
10903;DHT22;5504;47.312;11.060;2022-07-06T04:13:06;15.50;98.40
10903;DHT22;5504;47.312;11.060;2022-07-06T04:15:32;15.60;98.70
10903;DHT22;5504;47.312;11.060;2022-07-06T04:17:58;15.70;98.60
10903;DHT22;5504;47.312;11.060;2022-07-06T04:20:24;15.70;98.60
10903;DHT22;5504;47.312;11.060;2022-07-06T04:22:51;15.70;98.30
10903;DHT22;5504;47.312;11.060;2022-07-06T04:25:17;15.70;98.30
10903;DHT22;5504;47.312;11.060;2022-07-06T04:27:42;15.60;98.00
10903;DHT22;5504;47.312;11.060;2022-07-06T04:30:09;15.60;98.00
10903;DHT22;5504;47.312;11.060;2022-07-06T04:32:35;15.70;98.10
10903;DHT22;5504;47.312;11.060;2022-07-06T04:35:02;15.80;98.20
10903;DHT22;5504;47.312;11.060;2022-07-06T04:37:28;15.90;98.10
10903;DHT22;5504;47.312;11.060;2022-07-06T04:39:53;16.00;98.20
10903;DHT22;5504;47.312;11.060;2022-07-06T04:42:19;16.30;98.40
10903;DHT22;5504;47.312;11.060;2022-07-06T04:44:45;16.20;98.20
10903;DHT22;5504;47.312;11.060;2022-07-06T04:47:12;16.30;98.20
10903;DHT22;5504;47.312;11.060;2022-07-06T04:49:37;16.50;98.10
10903;DHT22;5504;47.312;11.060;2022-07-06T04:52:04;16.70;98.00
10903;DHT22;5504;47.312;11.060;2022-07-06T04:54:29;16.80;98.00
10903;DHT22;5504;47.312;11.060;2022-07-06T04:56:55;17.00;97.70
10903;DHT22;5504;47.312;11.060;2022-07-06T04:59:21;17.10;97.60
10903;DHT22;5504;47.312;11.060;2022-07-06T05:01:47;17.30;97.50
10903;DHT22;5504;47.312;11.060;2022-07-06T05:04:12;17.40;97.20
10903;DHT22;5504;47.312;11.060;2022-07-06T05:06:39;17.50;97.20
10903;DHT22;5504;47.312;11.060;2022-07-06T05:09:05;17.60;96.90
10903;DHT22;5504;47.312;11.060;2022-07-06T05:11:30;17.50;96.40
10903;DHT22;5504;47.312;11.060;2022-07-06T05:13:56;17.60;96.30
10903;DHT22;5504;47.312;11.060;2022-07-06T05:16:22;17.70;95.90
10903;DHT22;5504;47.312;11.060;2022-07-06T05:18:48;17.60;96.20
10903;DHT22;5504;47.312;11.060;2022-07-06T05:21:14;17.80;96.50
10903;DHT22;5504;47.312;11.060;2022-07-06T05:23:39;17.90;96.50
10903;DHT22;5504;47.312;11.060;2022-07-06T05:26:06;18.00;96.00
10903;DHT22;5504;47.312;11.060;2022-07-06T05:28:31;17.80;96.10
10903;DHT22;5504;47.312;11.060;2022-07-06T05:30:57;18.10;96.70
10903;DHT22;5504;47.312;11.060;2022-07-06T05:33:23;18.30;96.10
10903;DHT22;5504;47.312;11.060;2022-07-06T05:35:48;18.10;95.80
10903;DHT22;5504;47.312;11.060;2022-07-06T05:38:15;18.40;96.50
10903;DHT22;5504;47.312;11.060;2022-07-06T05:40:40;18.70;96.20
10903;DHT22;5504;47.312;11.060;2022-07-06T05:43:06;19.00;95.60
10903;DHT22;5504;47.312;11.060;2022-07-06T05:45:32;19.20;95.60
10903;DHT22;5504;47.312;11.060;2022-07-06T05:47:58;19.10;94.80
10903;DHT22;5504;47.312;11.060;2022-07-06T05:50:42;19.10;94.30
10903;DHT22;5504;47.312;11.060;2022-07-06T05:53:08;18.90;94.70
10903;DHT22;5504;47.312;11.060;2022-07-06T05:55:34;19.30;95.40
10903;DHT22;5504;47.312;11.060;2022-07-06T05:57:59;19.50;94.10
10903;DHT22;5504;47.312;11.060;2022-07-06T06:00:26;19.80;94.00
10903;DHT22;5504;47.312;11.060;2022-07-06T06:02:53;19.60;92.50
10903;DHT22;5504;47.312;11.060;2022-07-06T06:05:19;18.70;93.90
10903;DHT22;5504;47.312;11.060;2022-07-06T06:07:45;18.90;93.90
10903;DHT22;5504;47.312;11.060;2022-07-06T06:10:13;19.60;94.30
10903;DHT22;5504;47.312;11.060;2022-07-06T06:12:40;20.00;93.00
10903;DHT22;5504;47.312;11.060;2022-07-06T06:15:07;20.00;92.10
10903;DHT22;5504;47.312;11.060;2022-07-06T06:17:33;19.70;92.70
10903;DHT22;5504;47.312;11.060;2022-07-06T06:19:59;20.10;94.70
10903;DHT22;5504;47.312;11.060;2022-07-06T06:22:25;20.50;92.70
10903;DHT22;5504;47.312;11.060;2022-07-06T06:24:51;20.70;91.30
10903;DHT22;5504;47.312;11.060;2022-07-06T06:27:16;20.80;90.30
10903;DHT22;5504;47.312;11.060;2022-07-06T06:29:42;20.40;90.70
10903;DHT22;5504;47.312;11.060;2022-07-06T06:32:10;20.60;92.50
10903;DHT22;5504;47.312;11.060;2022-07-06T06:34:37;21.20;91.90
10903;DHT22;5504;47.312;11.060;2022-07-06T06:37:03;21.60;89.00
10903;DHT22;5504;47.312;11.060;2022-07-06T06:39:29;21.20;89.40
10903;DHT22;5504;47.312;11.060;2022-07-06T06:41:55;21.90;90.40
10903;DHT22;5504;47.312;11.060;2022-07-06T06:44:20;21.10;88.10
10903;DHT22;5504;47.312;11.060;2022-07-06T06:46:49;20.60;89.70
10903;DHT22;5504;47.312;11.060;2022-07-06T06:49:15;20.40;90.00
10903;DHT22;5504;47.312;11.060;2022-07-06T06:51:41;20.70;90.20
10903;DHT22;5504;47.312;11.060;2022-07-06T06:54:06;20.90;91.80
10903;DHT22;5504;47.312;11.060;2022-07-06T06:56:32;21.10;91.20
10903;DHT22;5504;47.312;11.060;2022-07-06T06:58:58;20.80;89.00
10903;DHT22;5504;47.312;11.060;2022-07-06T07:01:23;20.90;90.50
10903;DHT22;5504;47.312;11.060;2022-07-06T07:03:51;21.50;89.40
10903;DHT22;5504;47.312;11.060;2022-07-06T07:06:17;21.80;88.90
10903;DHT22;5504;47.312;11.060;2022-07-06T07:08:43;22.00;90.30
10903;DHT22;5504;47.312;11.060;2022-07-06T07:11:08;22.10;90.00
10903;DHT22;5504;47.312;11.060;2022-07-06T07:13:34;22.80;92.70
10903;DHT22;5504;47.312;11.060;2022-07-06T07:16:00;23.40;90.40
10903;DHT22;5504;47.312;11.060;2022-07-06T07:18:25;23.70;85.80
10903;DHT22;5504;47.312;11.060;2022-07-06T07:20:51;23.40;84.60
10903;DHT22;5504;47.312;11.060;2022-07-06T07:23:17;23.50;85.60
10903;DHT22;5504;47.312;11.060;2022-07-06T07:25:42;24.10;89.60
10903;DHT22;5504;47.312;11.060;2022-07-06T07:28:08;23.80;81.50
10903;DHT22;5504;47.312;11.060;2022-07-06T07:30:34;23.70;85.20
10903;DHT22;5504;47.312;11.060;2022-07-06T07:33:00;24.50;90.20
10903;DHT22;5504;47.312;11.060;2022-07-06T07:35:27;25.40;82.20
10903;DHT22;5504;47.312;11.060;2022-07-06T07:37:52;25.80;80.40
10903;DHT22;5504;47.312;11.060;2022-07-06T07:40:18;26.20;80.40
10903;DHT22;5504;47.312;11.060;2022-07-06T07:42:44;26.50;82.70
10903;DHT22;5504;47.312;11.060;2022-07-06T07:45:11;26.10;74.50
10903;DHT22;5504;47.312;11.060;2022-07-06T07:47:38;26.10;76.00
10903;DHT22;5504;47.312;11.060;2022-07-06T07:50:04;26.70;82.20
10903;DHT22;5504;47.312;11.060;2022-07-06T07:52:30;27.30;77.80
10903;DHT22;5504;47.312;11.060;2022-07-06T07:54:55;27.70;76.70
10903;DHT22;5504;47.312;11.060;2022-07-06T07:57:21;27.70;71.90
10903;DHT22;5504;47.312;11.060;2022-07-06T07:59:47;27.60;77.60
10903;DHT22;5504;47.312;11.060;2022-07-06T08:02:12;27.90;74.70
10903;DHT22;5504;47.312;11.060;2022-07-06T08:04:38;27.10;71.80
10903;DHT22;5504;47.312;11.060;2022-07-06T08:07:04;27.20;75.70
10903;DHT22;5504;47.312;11.060;2022-07-06T08:09:29;27.50;73.60
10903;DHT22;5504;47.312;11.060;2022-07-06T08:11:55;28.00;72.90
10903;DHT22;5504;47.312;11.060;2022-07-06T08:14:22;27.80;71.00
10903;DHT22;5504;47.312;11.060;2022-07-06T08:16:47;27.70;71.00
10903;DHT22;5504;47.312;11.060;2022-07-06T08:19:13;27.40;70.70
10903;DHT22;5504;47.312;11.060;2022-07-06T08:21:41;27.00;75.40
10903;DHT22;5504;47.312;11.060;2022-07-06T08:24:07;26.60;76.80
10903;DHT22;5504;47.312;11.060;2022-07-06T08:26:33;26.20;70.20
10903;DHT22;5504;47.312;11.060;2022-07-06T08:28:58;26.70;70.40
10903;DHT22;5504;47.312;11.060;2022-07-06T08:31:24;25.70;71.60
10903;DHT22;5504;47.312;11.060;2022-07-06T08:33:50;25.10;70.00
10903;DHT22;5504;47.312;11.060;2022-07-06T08:36:19;25.00;75.20
10903;DHT22;5504;47.312;11.060;2022-07-06T08:38:45;26.50;76.80
10903;DHT22;5504;47.312;11.060;2022-07-06T08:41:13;27.30;68.60
10903;DHT22;5504;47.312;11.060;2022-07-06T08:43:39;27.40;71.80
10903;DHT22;5504;47.312;11.060;2022-07-06T08:46:07;28.50;77.00
10903;DHT22;5504;47.312;11.060;2022-07-06T08:48:36;29.40;73.60
10903;DHT22;5504;47.312;11.060;2022-07-06T08:51:03;29.40;65.90
10903;DHT22;5504;47.312;11.060;2022-07-06T08:53:29;28.70;57.80
10903;DHT22;5504;47.312;11.060;2022-07-06T08:55:55;27.40;65.50
10903;DHT22;5504;47.312;11.060;2022-07-06T08:58:24;27.80;60.70
10903;DHT22;5504;47.312;11.060;2022-07-06T09:00:50;27.80;68.30
10903;DHT22;5504;47.312;11.060;2022-07-06T09:03:15;28.40;66.40
10903;DHT22;5504;47.312;11.060;2022-07-06T09:05:45;28.50;65.90
10903;DHT22;5504;47.312;11.060;2022-07-06T09:08:11;28.20;71.00
10903;DHT22;5504;47.312;11.060;2022-07-06T09:10:37;27.80;63.20
10903;DHT22;5504;47.312;11.060;2022-07-06T09:13:08;27.60;67.10
10903;DHT22;5504;47.312;11.060;2022-07-06T09:15:37;27.60;69.10
10903;DHT22;5504;47.312;11.060;2022-07-06T09:18:06;27.90;69.10
10903;DHT22;5504;47.312;11.060;2022-07-06T09:20:33;28.20;67.10
10903;DHT22;5504;47.312;11.060;2022-07-06T09:23:00;28.50;67.40
10903;DHT22;5504;47.312;11.060;2022-07-06T09:25:27;29.40;69.80
10903;DHT22;5504;47.312;11.060;2022-07-06T09:27:53;29.90;65.20
10903;DHT22;5504;47.312;11.060;2022-07-06T09:30:23;30.00;59.80
10903;DHT22;5504;47.312;11.060;2022-07-06T09:32:51;30.00;58.10
10903;DHT22;5504;47.312;11.060;2022-07-06T09:40:27;29.80;56.10
10903;DHT22;5504;47.312;11.060;2022-07-06T09:45:41;29.90;53.30
10903;DHT22;5504;47.312;11.060;2022-07-06T09:48:12;29.50;54.50
10903;DHT22;5504;47.312;11.060;2022-07-06T09:50:43;30.10;57.20
10903;DHT22;5504;47.312;11.060;2022-07-06T09:53:10;30.50;57.10
10903;DHT22;5504;47.312;11.060;2022-07-06T09:55:36;31.10;57.10
10903;DHT22;5504;47.312;11.060;2022-07-06T09:58:02;31.70;54.40
10903;DHT22;5504;47.312;11.060;2022-07-06T10:00:28;31.80;50.40
10903;DHT22;5504;47.312;11.060;2022-07-06T10:02:56;32.40;54.20
10903;DHT22;5504;47.312;11.060;2022-07-06T10:05:23;32.20;46.70
10903;DHT22;5504;47.312;11.060;2022-07-06T10:07:57;32.50;53.80
10903;DHT22;5504;47.312;11.060;2022-07-06T10:10:25;33.10;55.10
10903;DHT22;5504;47.312;11.060;2022-07-06T10:12:54;33.00;54.20
10903;DHT22;5504;47.312;11.060;2022-07-06T10:15:22;32.30;52.40
10903;DHT22;5504;47.312;11.060;2022-07-06T10:17:50;32.60;56.40
10903;DHT22;5504;47.312;11.060;2022-07-06T10:20:17;31.80;47.40
10903;DHT22;5504;47.312;11.060;2022-07-06T10:22:43;32.10;53.50
10903;DHT22;5504;47.312;11.060;2022-07-06T10:25:09;32.10;48.90
10903;DHT22;5504;47.312;11.060;2022-07-06T10:27:35;32.10;49.30
10903;DHT22;5504;47.312;11.060;2022-07-06T10:30:02;31.70;48.40
10903;DHT22;5504;47.312;11.060;2022-07-06T10:32:28;31.50;49.90
10903;DHT22;5504;47.312;11.060;2022-07-06T10:34:54;31.40;49.80
10903;DHT22;5504;47.312;11.060;2022-07-06T10:37:24;31.40;51.80
10903;DHT22;5504;47.312;11.060;2022-07-06T10:39:51;31.20;46.40
10903;DHT22;5504;47.312;11.060;2022-07-06T10:42:39;30.80;48.70
10903;DHT22;5504;47.312;11.060;2022-07-06T10:45:06;30.90;47.60
10903;DHT22;5504;47.312;11.060;2022-07-06T10:47:32;31.60;53.10
10903;DHT22;5504;47.312;11.060;2022-07-06T10:50:02;30.30;45.40
10903;DHT22;5504;47.312;11.060;2022-07-06T10:52:51;30.80;50.60
10903;DHT22;5504;47.312;11.060;2022-07-06T10:55:31;31.40;48.30
10903;DHT22;5504;47.312;11.060;2022-07-06T10:57:57;30.50;43.70
10903;DHT22;5504;47.312;11.060;2022-07-06T11:00:23;30.20;48.30
10903;DHT22;5504;47.312;11.060;2022-07-06T11:02:49;30.80;51.60
10903;DHT22;5504;47.312;11.060;2022-07-06T11:05:39;31.20;48.40
10903;DHT22;5504;47.312;11.060;2022-07-06T11:08:08;31.70;48.20
10903;DHT22;5504;47.312;11.060;2022-07-06T11:10:47;32.20;48.30
10903;DHT22;5504;47.312;11.060;2022-07-06T11:13:26;32.60;48.10
10903;DHT22;5504;47.312;11.060;2022-07-06T11:15:52;32.20;44.20
10903;DHT22;5504;47.312;11.060;2022-07-06T11:18:25;32.20;46.70
10903;DHT22;5504;47.312;11.060;2022-07-06T11:23:49;30.00;45.40
10903;DHT22;5504;47.312;11.060;2022-07-06T11:26:16;30.20;48.50
10903;DHT22;5504;47.312;11.060;2022-07-06T11:28:45;29.80;47.30
10903;DHT22;5504;47.312;11.060;2022-07-06T11:31:12;29.50;47.50
10903;DHT22;5504;47.312;11.060;2022-07-06T11:33:38;29.20;47.90
10903;DHT22;5504;47.312;11.060;2022-07-06T11:38:43;30.00;44.90
10903;DHT22;5504;47.312;11.060;2022-07-06T11:41:09;30.30;50.00
10903;DHT22;5504;47.312;11.060;2022-07-06T11:43:35;30.80;45.00
10903;DHT22;5504;47.312;11.060;2022-07-06T11:46:00;31.30;46.70
10903;DHT22;5504;47.312;11.060;2022-07-06T11:48:26;31.50;46.80
10903;DHT22;5504;47.312;11.060;2022-07-06T11:51:02;31.30;48.00
10903;DHT22;5504;47.312;11.060;2022-07-06T11:53:29;31.20;48.00
10903;DHT22;5504;47.312;11.060;2022-07-06T11:55:55;30.60;47.10
10903;DHT22;5504;47.312;11.060;2022-07-06T11:58:22;30.60;48.60
10903;DHT22;5504;47.312;11.060;2022-07-06T12:01:07;30.70;48.50
10903;DHT22;5504;47.312;11.060;2022-07-06T12:03:34;31.30;48.10
10903;DHT22;5504;47.312;11.060;2022-07-06T12:06:13;31.30;46.90
10903;DHT22;5504;47.312;11.060;2022-07-06T12:13:44;30.90;45.10
10903;DHT22;5504;47.312;11.060;2022-07-06T12:16:11;31.50;46.40
10903;DHT22;5504;47.312;11.060;2022-07-06T12:18:38;31.80;45.10
10903;DHT22;5504;47.312;11.060;2022-07-06T12:21:07;32.00;46.20
10903;DHT22;5504;47.312;11.060;2022-07-06T12:23:50;32.20;44.80
10903;DHT22;5504;47.312;11.060;2022-07-06T12:26:18;32.00;42.80
10903;DHT22;5504;47.312;11.060;2022-07-06T12:28:44;32.30;45.00
10903;DHT22;5504;47.312;11.060;2022-07-06T12:31:11;32.70;43.50
10903;DHT22;5504;47.312;11.060;2022-07-06T12:33:37;32.40;42.20
10903;DHT22;5504;47.312;11.060;2022-07-06T12:36:29;31.90;44.30
10903;DHT22;5504;47.312;11.060;2022-07-06T12:38:55;30.90;44.40
10903;DHT22;5504;47.312;11.060;2022-07-06T12:44:03;30.10;46.50
10903;DHT22;5504;47.312;11.060;2022-07-06T12:49:01;29.60;44.10
10903;DHT22;5504;47.312;11.060;2022-07-06T12:51:27;30.10;48.40
10903;DHT22;5504;47.312;11.060;2022-07-06T12:54:11;30.30;47.60
10903;DHT22;5504;47.312;11.060;2022-07-06T12:56:59;29.60;44.20
10903;DHT22;5504;47.312;11.060;2022-07-06T12:59:25;29.40;47.00
10903;DHT22;5504;47.312;11.060;2022-07-06T13:01:52;29.50;47.10
10903;DHT22;5504;47.312;11.060;2022-07-06T13:04:22;29.40;48.90
10903;DHT22;5504;47.312;11.060;2022-07-06T13:06:48;29.40;49.20
10903;DHT22;5504;47.312;11.060;2022-07-06T13:09:13;29.20;49.10
10903;DHT22;5504;47.312;11.060;2022-07-06T13:11:40;29.20;51.00
10903;DHT22;5504;47.312;11.060;2022-07-06T13:14:06;29.60;48.30
10903;DHT22;5504;47.312;11.060;2022-07-06T13:16:31;29.60;47.00
10903;DHT22;5504;47.312;11.060;2022-07-06T13:19:00;30.40;49.80
10903;DHT22;5504;47.312;11.060;2022-07-06T13:21:26;30.60;48.60
10903;DHT22;5504;47.312;11.060;2022-07-06T13:23:52;30.70;47.20
10903;DHT22;5504;47.312;11.060;2022-07-06T13:26:18;31.10;45.40
10903;DHT22;5504;47.312;11.060;2022-07-06T13:28:44;31.00;44.90
10903;DHT22;5504;47.312;11.060;2022-07-06T13:31:10;31.10;45.10
10903;DHT22;5504;47.312;11.060;2022-07-06T13:33:36;31.20;47.40
10903;DHT22;5504;47.312;11.060;2022-07-06T13:36:02;30.50;45.20
10903;DHT22;5504;47.312;11.060;2022-07-06T13:38:27;29.80;47.20
10903;DHT22;5504;47.312;11.060;2022-07-06T13:40:53;29.50;48.60
10903;DHT22;5504;47.312;11.060;2022-07-06T13:43:19;29.20;50.10
10903;DHT22;5504;47.312;11.060;2022-07-06T13:45:48;29.10;54.30
10903;DHT22;5504;47.312;11.060;2022-07-06T13:48:14;29.00;53.00
10903;DHT22;5504;47.312;11.060;2022-07-06T13:50:40;28.90;52.00
10903;DHT22;5504;47.312;11.060;2022-07-06T13:53:06;28.40;46.20
10903;DHT22;5504;47.312;11.060;2022-07-06T13:55:32;28.20;49.50
10903;DHT22;5504;47.312;11.060;2022-07-06T13:57:58;28.10;55.10
10903;DHT22;5504;47.312;11.060;2022-07-06T14:00:24;27.70;51.40
10903;DHT22;5504;47.312;11.060;2022-07-06T14:02:50;27.60;52.20
10903;DHT22;5504;47.312;11.060;2022-07-06T14:05:16;27.40;51.50
10903;DHT22;5504;47.312;11.060;2022-07-06T14:07:42;27.80;52.20
10903;DHT22;5504;47.312;11.060;2022-07-06T14:10:08;28.30;54.10
10903;DHT22;5504;47.312;11.060;2022-07-06T14:12:34;28.40;51.00
10903;DHT22;5504;47.312;11.060;2022-07-06T14:14:59;28.10;50.30
10903;DHT22;5504;47.312;11.060;2022-07-06T14:17:26;27.90;51.40
10903;DHT22;5504;47.312;11.060;2022-07-06T14:19:51;27.60;49.80
10903;DHT22;5504;47.312;11.060;2022-07-06T14:22:17;27.30;49.10
10903;DHT22;5504;47.312;11.060;2022-07-06T14:24:43;27.40;56.20
10903;DHT22;5504;47.312;11.060;2022-07-06T14:27:09;27.40;55.10
10903;DHT22;5504;47.312;11.060;2022-07-06T14:29:35;27.40;52.50
10903;DHT22;5504;47.312;11.060;2022-07-06T14:32:00;27.50;55.40
10903;DHT22;5504;47.312;11.060;2022-07-06T14:34:26;27.50;58.10
10903;DHT22;5504;47.312;11.060;2022-07-06T14:36:52;27.30;57.10
10903;DHT22;5504;47.312;11.060;2022-07-06T14:39:18;26.90;51.50
10903;DHT22;5504;47.312;11.060;2022-07-06T14:41:43;26.90;54.20
10903;DHT22;5504;47.312;11.060;2022-07-06T14:44:09;27.30;56.70
10903;DHT22;5504;47.312;11.060;2022-07-06T14:46:35;27.60;51.90
10903;DHT22;5504;47.312;11.060;2022-07-06T14:49:01;27.80;53.20
10903;DHT22;5504;47.312;11.060;2022-07-06T14:51:27;27.10;50.60
10903;DHT22;5504;47.312;11.060;2022-07-06T14:53:53;26.80;50.50
10903;DHT22;5504;47.312;11.060;2022-07-06T14:56:19;26.80;52.50
10903;DHT22;5504;47.312;11.060;2022-07-06T14:58:44;26.60;53.90
10903;DHT22;5504;47.312;11.060;2022-07-06T15:01:10;26.60;52.60
10903;DHT22;5504;47.312;11.060;2022-07-06T15:03:36;26.70;55.00
10903;DHT22;5504;47.312;11.060;2022-07-06T15:06:02;26.80;58.80
10903;DHT22;5504;47.312;11.060;2022-07-06T15:08:28;27.00;56.00
10903;DHT22;5504;47.312;11.060;2022-07-06T15:10:54;27.00;53.80
10903;DHT22;5504;47.312;11.060;2022-07-06T15:13:20;26.90;53.30
10903;DHT22;5504;47.312;11.060;2022-07-06T15:15:46;26.60;52.80
10903;DHT22;5504;47.312;11.060;2022-07-06T15:18:11;26.70;53.20
10903;DHT22;5504;47.312;11.060;2022-07-06T15:20:37;26.90;55.50
10903;DHT22;5504;47.312;11.060;2022-07-06T15:23:03;27.00;54.30
10903;DHT22;5504;47.312;11.060;2022-07-06T15:25:29;27.00;54.70
10903;DHT22;5504;47.312;11.060;2022-07-06T15:27:55;26.50;52.30
10903;DHT22;5504;47.312;11.060;2022-07-06T15:30:21;26.30;53.50
10903;DHT22;5504;47.312;11.060;2022-07-06T15:32:46;25.90;54.20
10903;DHT22;5504;47.312;11.060;2022-07-06T15:35:12;25.90;54.60
10903;DHT22;5504;47.312;11.060;2022-07-06T15:37:38;25.60;54.10
10903;DHT22;5504;47.312;11.060;2022-07-06T15:40:04;25.50;54.80
10903;DHT22;5504;47.312;11.060;2022-07-06T15:42:31;25.40;55.60
10903;DHT22;5504;47.312;11.060;2022-07-06T15:44:57;25.40;54.90
10903;DHT22;5504;47.312;11.060;2022-07-06T15:47:23;25.50;55.90
10903;DHT22;5504;47.312;11.060;2022-07-06T15:49:49;25.60;55.30
10903;DHT22;5504;47.312;11.060;2022-07-06T15:52:15;25.70;56.20